Time;durP1;ratioP1;P1;durP2;ratioP2;P2;SDS_P1;SDS_P2;PMS_P1;PMS_P2;Temp;Humidity;BMP_temperature;BMP_pressure;BME280_temperature;BME280_humidity;BME280_pressure;Samples;Min_cycle;Max_cycle;Signal;HPM_P1;HPM_P2
2022/08/04 00:01:20;;;;;;;7.03;2.33;;;23.10;92.00;;;;;;5021315;28;20049;-38
2022/08/04 00:04:02;;;;;;;7.05;2.20;;;23.10;92.10;;;;;;5024491;28;20045;-41
2022/08/04 00:06:43;;;;;;;6.88;2.35;;;23.10;92.20;;;;;;5014702;28;20080;-39
2022/08/04 00:09:15;;;;;;;11.88;2.90;;;23.10;92.10;;;;;;5016544;28;20048;-39
2022/08/04 00:11:45;;;;;;;4.97;2.10;;;23.00;92.10;;;;;;5017710;28;20041;-38
2022/08/04 00:14:13;;;;;;;4.05;1.67;;;23.00;92.30;;;;;;5017583;28;20054;-41
2022/08/04 00:16:41;;;;;;;4.95;2.00;;;22.90;92.40;;;;;;5023839;28;20446;-40
2022/08/04 00:19:20;;;;;;;4.80;1.95;;;22.90;92.70;;;;;;5023047;28;20041;-38
2022/08/04 00:21:54;;;;;;;6.22;2.42;;;22.80;93.10;;;;;;5021105;28;20057;-37
2022/08/04 00:24:21;;;;;;;6.53;2.58;;;22.80;93.20;;;;;;5025773;28;20049;-41
2022/08/04 00:26:47;;;;;;;6.32;2.40;;;22.80;93.70;;;;;;5017202;28;20038;-39
2022/08/04 00:29:13;;;;;;;6.07;1.98;;;22.70;93.40;;;;;;5019668;28;20043;-40
2022/08/04 00:31:41;;;;;;;5.82;2.53;;;22.70;93.50;;;;;;5021000;28;20107;-40
2022/08/04 00:34:12;;;;;;;5.82;2.63;;;22.70;93.60;;;;;;5014941;28;20041;-37
2022/08/04 00:36:41;;;;;;;9.50;2.73;;;22.60;93.70;;;;;;5023323;28;20034;-40
2022/08/04 00:39:11;;;;;;;9.35;2.55;;;22.60;93.60;;;;;;5023598;28;20060;-39
2022/08/04 00:42:15;;;;;;;7.40;2.10;;;22.60;93.70;;;;;;5022172;28;20154;-38
2022/08/04 00:45:08;;;;;;;7.32;2.55;;;22.60;94.40;;;;;;5023632;28;20041;-38
2022/08/04 00:47:58;;;;;;;8.82;2.65;;;22.60;94.00;;;;;;5017087;28;20038;-38
2022/08/04 00:50:39;;;;;;;6.95;2.58;;;22.60;94.00;;;;;;5023641;28;20521;-39
2022/08/04 00:53:18;;;;;;;7.38;2.20;;;22.60;94.10;;;;;;5019587;28;20085;-39
2022/08/04 00:56:08;;;;;;;7.03;2.33;;;22.50;94.30;;;;;;5019928;28;20068;-38
2022/08/04 00:58:56;;;;;;;7.80;2.40;;;22.50;94.60;;;;;;5020774;28;20037;-40
2022/08/04 01:01:32;;;;;;;4.28;1.80;;;22.40;94.60;;;;;;5012963;28;20047;-38
2022/08/04 01:04:32;;;;;;;6.22;2.30;;;22.40;95.00;;;;;;5017826;28;20069;-38
2022/08/04 01:07:01;;;;;;;8.85;2.67;;;22.30;95.40;;;;;;5017573;28;20146;-37
2022/08/04 01:09:51;;;;;;;11.63;2.53;;;22.30;95.30;;;;;;5011326;28;20052;-37
2022/08/04 01:12:49;;;;;;;7.68;2.58;;;22.30;95.90;;;;;;5022897;28;20049;-38
2022/08/04 01:15:30;;;;;;;7.53;2.20;;;22.20;96.10;;;;;;5017705;28;20044;-38
2022/08/04 01:18:05;;;;;;;7.28;2.10;;;22.20;96.50;;;;;;5008254;28;20037;-40
2022/08/04 01:20:48;;;;;;;6.65;2.60;;;22.10;97.20;;;;;;5010127;28;20829;-38
2022/08/04 01:23:45;;;;;;;4.32;2.00;;;22.00;97.40;;;;;;5012740;28;20049;-38
2022/08/04 01:26:29;;;;;;;9.00;3.08;;;21.90;98.50;;;;;;5015858;28;20531;-38
2022/08/04 01:29:08;;;;;;;9.25;2.55;;;21.80;98.60;;;;;;5016912;28;20134;-38
2022/08/04 01:31:54;;;;;;;7.47;2.00;;;21.70;98.90;;;;;;5027115;28;20077;-38
2022/08/04 01:34:21;;;;;;;8.15;2.20;;;21.70;99.50;;;;;;5022277;28;20050;-40
2022/08/04 01:36:59;;;;;;;6.63;2.65;;;21.60;99.30;;;;;;5019798;28;20029;-38
2022/08/04 01:39:42;;;;;;;5.35;2.38;;;21.60;99.60;;;;;;5028887;28;20038;-38
2022/08/04 01:42:09;;;;;;;6.55;2.65;;;21.60;99.80;;;;;;5021765;28;20099;-35
2022/08/04 01:44:37;;;;;;;5.00;2.75;;;21.50;99.90;;;;;;5023280;28;20041;-38
2022/08/04 01:47:03;;;;;;;6.78;2.40;;;21.50;99.90;;;;;;5018628;28;20525;-36
2022/08/04 01:49:31;;;;;;;4.70;2.33;;;21.50;99.90;;;;;;5021819;28;20500;-38
2022/08/04 01:52:00;;;;;;;8.15;2.80;;;21.40;99.90;;;;;;5020268;28;20778;-41
2022/08/04 01:54:27;;;;;;;6.75;3.00;;;21.40;99.90;;;;;;5019984;28;20534;-41
2022/08/04 01:56:55;;;;;;;6.07;2.47;;;21.40;99.90;;;;;;5019853;28;20553;-35
2022/08/04 01:59:21;;;;;;;8.23;2.70;;;21.40;99.90;;;;;;5018343;28;20634;-38
2022/08/04 02:01:47;;;;;;;7.20;2.90;;;21.30;99.90;;;;;;5025591;28;20041;-37
2022/08/04 02:04:19;;;;;;;6.72;3.00;;;21.30;99.90;;;;;;5018506;28;20466;-38
2022/08/04 02:06:50;;;;;;;5.15;2.53;;;21.30;99.90;;;;;;5017282;28;20048;-38
2022/08/04 02:09:24;;;;;;;4.68;2.05;;;21.30;99.90;;;;;;5011887;28;20093;-38
2022/08/04 02:12:24;;;;;;;6.15;3.15;;;21.20;99.90;;;;;;5017622;28;20037;-40
2022/08/04 02:14:58;;;;;;;6.40;2.92;;;21.20;99.90;;;;;;5020149;28;20457;-38
2022/08/04 02:17:36;;;;;;;6.85;2.50;;;21.10;99.90;;;;;;5018577;28;20045;-38
2022/08/04 02:20:18;;;;;;;5.43;2.65;;;21.10;99.90;;;;;;5022075;28;20058;-38
2022/08/04 02:23:00;;;;;;;4.82;2.35;;;21.00;99.90;;;;;;5020249;28;20116;-38
2022/08/04 02:25:31;;;;;;;4.78;2.65;;;21.00;99.90;;;;;;5015907;28;20056;-38
2022/08/04 02:28:17;;;;;;;7.55;2.63;;;20.90;99.90;;;;;;5020252;28;20117;-40
2022/08/04 02:30:55;;;;;;;8.57;2.75;;;20.90;99.90;;;;;;5020248;28;20119;-37
2022/08/04 02:33:29;;;;;;;5.35;2.13;;;20.90;99.90;;;;;;5017271;28;20068;-38
2022/08/04 02:36:00;;;;;;;5.28;2.60;;;20.90;99.90;;;;;;5021951;28;20048;-38
2022/08/04 02:38:49;;;;;;;9.93;2.78;;;20.80;99.90;;;;;;5015787;28;20408;-38
2022/08/04 02:41:16;;;;;;;6.38;2.42;;;20.90;99.90;;;;;;5024242;28;20044;-38
2022/08/04 02:43:47;;;;;;;5.00;2.70;;;20.90;99.90;;;;;;5010106;28;20103;-35
2022/08/04 02:46:14;;;;;;;8.45;2.58;;;20.90;99.90;;;;;;5024778;28;20045;-38
2022/08/04 02:48:44;;;;;;;7.88;2.25;;;20.80;99.90;;;;;;5014681;28;20169;-40
2022/08/04 02:51:13;;;;;;;5.50;2.50;;;20.80;99.90;;;;;;5019057;28;20048;-38
2022/08/04 02:53:40;;;;;;;5.95;2.20;;;20.80;99.90;;;;;;5025016;28;20079;-40
2022/08/04 02:56:08;;;;;;;7.07;2.55;;;20.80;99.90;;;;;;5010991;28;20482;-38
2022/08/04 02:58:35;;;;;;;7.43;2.80;;;20.80;99.90;;;;;;5018608;28;20046;-38
2022/08/04 03:01:02;;;;;;;6.72;2.65;;;20.80;99.90;;;;;;5017409;28;20068;-35
2022/08/04 03:03:44;;;;;;;6.18;2.70;;;20.80;99.90;;;;;;5022658;28;20038;-35
2022/08/04 03:06:10;;;;;;;4.22;2.00;;;20.80;99.90;;;;;;5016972;28;20163;-38
2022/08/04 03:08:56;;;;;;;4.90;2.70;;;20.80;99.90;;;;;;5013070;28;20061;-41
2022/08/04 03:11:48;;;;;;;6.68;2.65;;;20.70;99.90;;;;;;5019297;28;20034;-40
2022/08/04 03:14:42;;;;;;;7.20;2.30;;;20.70;99.90;;;;;;5017886;28;20045;-38
2022/08/04 03:17:48;;;;;;;8.05;2.55;;;20.60;99.90;;;;;;5023557;28;20048;-37
2022/08/04 03:20:34;;;;;;;7.97;3.20;;;20.60;99.90;;;;;;4988802;28;20452;-38
2022/08/04 03:23:42;;;;;;;7.35;3.30;;;20.50;99.90;;;;;;5024262;28;20049;-37
2022/08/04 03:26:25;;;;;;;6.55;3.17;;;20.40;99.90;;;;;;5017133;28;20079;-36
2022/08/04 03:29:20;;;;;;;7.47;3.60;;;20.30;99.90;;;;;;5019546;28;20073;-38
2022/08/04 03:32:03;;;;;;;7.05;3.78;;;20.30;99.90;;;;;;5015028;28;20046;-38
2022/08/04 03:34:59;;;;;;;6.25;3.35;;;20.20;99.90;;;;;;5019838;28;20046;-38
2022/08/04 03:37:44;;;;;;;4.82;3.17;;;20.20;99.90;;;;;;5013114;28;20045;-39
2022/08/04 03:40:35;;;;;;;11.40;2.72;;;20.20;99.90;;;;;;4999555;28;20068;-38
2022/08/04 03:43:03;;;;;;;5.45;2.67;;;20.30;99.90;;;;;;5018458;28;20495;-34
2022/08/04 03:45:47;;;;;;;10.38;3.63;;;20.30;99.90;;;;;;5012302;28;20096;-39
2022/08/04 03:48:43;;;;;;;8.40;3.28;;;20.30;99.90;;;;;;5016926;28;20042;-38
2022/08/04 03:54:44;;;;;;;5.35;2.95;;;20.30;99.90;;;;;;5014464;28;20044;-38
2022/08/04 03:57:28;;;;;;;6.60;3.25;;;20.20;99.90;;;;;;5022307;28;20051;-38
2022/08/04 04:00:16;;;;;;;5.35;3.17;;;20.20;99.90;;;;;;5015805;28;20143;-38
2022/08/04 04:03:28;;;;;;;5.32;2.67;;;20.20;99.90;;;;;;5017029;28;20068;-38
2022/08/04 04:06:23;;;;;;;13.30;3.42;;;20.20;99.90;;;;;;5018020;28;20061;-38
2022/08/04 04:09:07;;;;;;;6.95;3.05;;;20.30;99.90;;;;;;5014655;28;20045;-40
2022/08/04 04:11:59;;;;;;;4.75;2.72;;;20.20;99.90;;;;;;5022737;28;20049;-40
2022/08/04 04:14:57;;;;;;;6.90;2.75;;;20.20;99.90;;;;;;5022575;28;20050;-38
2022/08/04 04:17:42;;;;;;;5.90;3.15;;;20.20;99.90;;;;;;5021399;28;20103;-38
2022/08/04 04:20:32;;;;;;;13.25;4.55;;;20.20;99.90;;;;;;5017741;28;20112;-37
2022/08/04 04:23:21;;;;;;;6.72;3.25;;;20.10;99.90;;;;;;5022588;28;20071;-38
2022/08/04 04:26:19;;;;;;;5.18;2.33;;;20.00;99.90;;;;;;5022286;28;20069;-40
2022/08/04 04:29:04;;;;;;;6.68;2.88;;;20.00;99.90;;;;;;5015945;28;20169;-37
2022/08/04 04:31:56;;;;;;;8.85;3.17;;;20.00;99.90;;;;;;5016853;28;20048;-37
2022/08/04 04:34:31;;;;;;;8.88;3.22;;;20.00;99.90;;;;;;5015495;28;20045;-40
2022/08/04 04:37:15;;;;;;;8.55;4.10;;;20.00;99.90;;;;;;5023292;28;20037;-40
2022/08/04 04:39:49;;;;;;;9.35;3.70;;;19.90;99.90;;;;;;5017822;28;20037;-38
2022/08/04 04:42:18;;;;;;;6.70;3.20;;;19.90;99.90;;;;;;5012816;28;20092;-38
2022/08/04 04:45:29;;;;;;;7.38;3.75;;;20.00;99.90;;;;;;5016772;28;20324;-38
2022/08/04 04:48:13;;;;;;;5.50;3.63;;;20.10;99.90;;;;;;5016318;28;20140;-38
2022/08/04 04:51:19;;;;;;;5.93;3.28;;;20.10;99.90;;;;;;5019797;28;20033;-37
2022/08/04 04:53:50;;;;;;;9.90;4.15;;;20.10;99.90;;;;;;5008964;28;20043;-34
2022/08/04 04:56:40;;;;;;;7.55;3.40;;;20.20;99.90;;;;;;5013570;28;20515;-37
2022/08/04 04:59:18;;;;;;;10.13;3.88;;;20.20;99.90;;;;;;5021084;28;20125;-38
2022/08/04 05:02:26;;;;;;;6.90;3.33;;;20.30;99.90;;;;;;5016570;28;20048;-39
2022/08/04 05:05:03;;;;;;;9.82;4.40;;;20.40;99.90;;;;;;5019849;28;20033;-41
2022/08/04 05:07:53;;;;;;;8.30;4.32;;;20.50;99.90;;;;;;5008461;28;20720;-41
2022/08/04 05:10:33;;;;;;;8.15;3.65;;;20.60;99.90;;;;;;5015516;28;20061;-40
2022/08/04 05:13:14;;;;;;;8.93;3.75;;;20.70;99.90;;;;;;5016281;28;20042;-38
2022/08/04 05:15:45;;;;;;;8.57;3.35;;;20.80;99.90;;;;;;5019159;28;20129;-37
2022/08/04 05:18:18;;;;;;;8.45;3.70;;;20.80;99.90;;;;;;5023125;28;20211;-38
2022/08/04 05:20:47;;;;;;;12.63;4.03;;;20.90;99.90;;;;;;5029477;28;20058;-38
2022/08/04 05:23:18;;;;;;;12.73;3.42;;;21.00;99.90;;;;;;5017637;28;20444;-38
2022/08/04 05:25:55;;;;;;;7.82;3.50;;;21.10;99.90;;;;;;5014722;28;20041;-38
2022/08/04 05:28:26;;;;;;;7.30;3.50;;;21.20;99.90;;;;;;5020888;28;20046;-39
2022/08/04 05:31:09;;;;;;;12.48;4.03;;;21.30;99.90;;;;;;5033859;28;20037;-40
2022/08/04 05:33:50;;;;;;;10.10;4.30;;;21.40;99.90;;;;;;5016353;28;20068;-38
2022/08/04 05:36:19;;;;;;;8.00;3.72;;;21.50;99.90;;;;;;5023365;28;20518;-38
2022/08/04 05:38:51;;;;;;;9.23;4.03;;;21.60;99.90;;;;;;5023610;28;20075;-38
2022/08/04 05:41:17;;;;;;;9.02;4.00;;;21.60;99.90;;;;;;5015041;28;20442;-36
2022/08/04 05:43:45;;;;;;;7.15;3.75;;;21.70;99.90;;;;;;5028434;28;20048;-38
2022/08/04 05:46:12;;;;;;;6.15;3.25;;;21.80;99.90;;;;;;5028169;28;20049;-38
2022/08/04 05:48:39;;;;;;;7.97;3.85;;;21.90;99.90;;;;;;5027853;28;20464;-41
2022/08/04 05:51:09;;;;;;;7.55;3.55;;;22.00;99.90;;;;;;5019772;28;20498;-38
2022/08/04 05:53:36;;;;;;;11.75;3.88;;;22.20;99.90;;;;;;5025580;28;20511;-38
2022/08/04 05:56:04;;;;;;;7.50;3.85;;;22.30;99.90;;;;;;5020568;28;20037;-36
2022/08/04 05:58:30;;;;;;;6.53;3.65;;;22.50;99.90;;;;;;5020310;28;20049;-38
2022/08/04 06:00:58;;;;;;;8.60;3.42;;;22.60;99.90;;;;;;5024707;28;20033;-38
2022/08/04 06:03:25;;;;;;;5.97;3.38;;;22.70;99.90;;;;;;5027056;28;20041;-38
2022/08/04 06:05:53;;;;;;;8.23;3.13;;;22.80;99.90;;;;;;5027213;28;20033;-38
2022/08/04 06:08:18;;;;;;;9.05;3.47;;;23.00;99.90;;;;;;5024600;28;20029;-37
2022/08/04 06:10:47;;;;;;;8.57;3.50;;;23.10;99.90;;;;;;5019229;28;20052;-37
2022/08/04 06:13:17;;;;;;;8.95;3.45;;;23.20;99.90;;;;;;5031768;28;20037;-38
2022/08/04 06:15:45;;;;;;;7.40;4.00;;;23.30;99.90;;;;;;5018384;28;20088;-38
2022/08/04 06:18:12;;;;;;;6.57;3.67;;;23.30;99.90;;;;;;5020922;28;20406;-38
2022/08/04 06:20:41;;;;;;;9.85;3.08;;;23.40;99.90;;;;;;5022432;28;20049;-38
2022/08/04 06:23:13;;;;;;;7.72;2.97;;;23.50;99.90;;;;;;5016129;28;20054;-38
2022/08/04 06:25:48;;;;;;;8.13;3.70;;;23.70;99.40;;;;;;5018073;28;20047;-36
2022/08/04 06:28:16;;;;;;;6.45;3.90;;;23.80;98.70;;;;;;5013225;28;20513;-38
2022/08/04 06:30:46;;;;;;;9.32;3.50;;;23.90;98.30;;;;;;5016941;28;20502;-38
2022/08/04 06:33:32;;;;;;;10.93;4.10;;;24.00;98.00;;;;;;5016341;28;20038;-38
2022/08/04 06:36:00;;;;;;;9.38;3.22;;;24.00;97.60;;;;;;5020019;28;20044;-41
2022/08/04 06:38:28;;;;;;;5.72;3.20;;;24.10;97.50;;;;;;5019518;28;20502;-39
2022/08/04 06:40:58;;;;;;;8.10;3.17;;;24.30;97.30;;;;;;5015862;28;20053;-38
2022/08/04 06:43:26;;;;;;;7.78;3.72;;;24.40;96.90;;;;;;5021160;28;20050;-38
2022/08/04 06:45:54;;;;;;;7.13;4.13;;;24.50;96.80;;;;;;5029038;28;20068;-40
2022/08/04 06:48:21;;;;;;;7.45;3.42;;;24.70;96.70;;;;;;5020135;28;20042;-37
2022/08/04 06:50:49;;;;;;;6.45;3.40;;;24.80;96.50;;;;;;5018862;28;20034;-40
2022/08/04 06:53:15;;;;;;;7.63;3.95;;;24.80;96.20;;;;;;5011129;28;20239;-38
2022/08/04 06:55:43;;;;;;;9.25;3.40;;;24.90;96.30;;;;;;5016544;28;20133;-38
2022/08/04 06:58:11;;;;;;;8.68;4.43;;;24.90;96.50;;;;;;5012326;28;20074;-38
2022/08/04 07:00:39;;;;;;;8.35;3.70;;;25.00;96.60;;;;;;5018063;28;20103;-38
2022/08/04 07:03:06;;;;;;;7.55;3.30;;;25.00;96.50;;;;;;5023774;28;20348;-38
2022/08/04 07:05:33;;;;;;;6.68;2.95;;;25.00;96.20;;;;;;5017573;28;20037;-38
2022/08/04 07:07:59;;;;;;;10.20;2.75;;;25.10;95.70;;;;;;5017290;28;20072;-34
2022/08/04 07:10:29;;;;;;;4.05;2.08;;;25.10;95.40;;;;;;5016072;28;20076;-38
2022/08/04 07:12:59;;;;;;;6.50;2.67;;;25.20;95.10;;;;;;5012281;28;20037;-37
2022/08/04 07:15:26;;;;;;;6.22;3.10;;;25.30;95.00;;;;;;5008645;28;20045;-38
2022/08/04 07:17:53;;;;;;;7.90;2.60;;;25.30;94.40;;;;;;5025916;28;20041;-38
2022/08/04 07:20:19;;;;;;;11.20;3.75;;;25.30;94.40;;;;;;5024125;28;20116;-40
2022/08/04 07:22:47;;;;;;;6.30;3.05;;;25.30;94.30;;;;;;5017904;28;20471;-38
2022/08/04 07:25:15;;;;;;;6.75;3.28;;;25.40;94.40;;;;;;5020242;28;20038;-38
2022/08/04 07:27:42;;;;;;;6.88;3.08;;;25.40;94.20;;;;;;5015245;28;20467;-38
2022/08/04 07:30:09;;;;;;;5.70;3.25;;;25.40;94.70;;;;;;5015847;28;20057;-37
2022/08/04 07:32:40;;;;;;;7.63;3.00;;;25.50;94.70;;;;;;5015993;28;20045;-37
2022/08/04 07:35:07;;;;;;;7.78;3.13;;;25.50;94.70;;;;;;5035948;28;20083;-40
2022/08/04 07:37:33;;;;;;;10.63;3.30;;;25.60;94.80;;;;;;5019729;28;20047;-38
2022/08/04 07:40:00;;;;;;;6.93;3.38;;;25.70;94.60;;;;;;5015981;28;20045;-38
2022/08/04 07:42:26;;;;;;;10.30;3.15;;;25.80;94.70;;;;;;5018794;28;20037;-38
2022/08/04 07:44:51;;;;;;;7.43;3.08;;;25.80;94.40;;;;;;5015501;28;20556;-38
2022/08/04 07:47:18;;;;;;;6.15;3.05;;;25.80;94.10;;;;;;5013399;28;20067;-37
2022/08/04 07:49:43;;;;;;;7.35;3.05;;;25.90;94.10;;;;;;5020246;28;20080;-38
2022/08/04 07:52:09;;;;;;;8.75;2.65;;;25.90;93.70;;;;;;5015098;28;20124;-41
2022/08/04 07:54:37;;;;;;;7.30;4.07;;;25.90;94.00;;;;;;5013753;28;20084;-38
2022/08/04 07:57:02;;;;;;;7.90;3.30;;;25.90;94.10;;;;;;5014751;28;20041;-38
2022/08/04 07:59:28;;;;;;;8.50;3.25;;;25.90;93.70;;;;;;5021070;28;20506;-40
2022/08/04 08:01:57;;;;;;;10.90;3.42;;;25.90;93.50;;;;;;5017265;28;20103;-38
2022/08/04 08:04:24;;;;;;;6.90;2.78;;;26.00;93.60;;;;;;5017683;28;20518;-40
2022/08/04 08:06:50;;;;;;;6.82;3.20;;;26.00;93.60;;;;;;5019517;28;20475;-40
2022/08/04 08:09:22;;;;;;;8.18;3.47;;;26.10;93.60;;;;;;5017905;28;20041;-38
2022/08/04 08:11:51;;;;;;;5.55;3.00;;;26.10;93.70;;;;;;5015758;28;20180;-41
2022/08/04 08:14:17;;;;;;;12.65;2.97;;;26.20;93.90;;;;;;5012512;28;20033;-38
2022/08/04 08:16:44;;;;;;;7.40;3.03;;;26.20;94.00;;;;;;5016999;28;20064;-38
2022/08/04 08:19:10;;;;;;;9.98;4.38;;;26.30;94.10;;;;;;5020643;28;20056;-36
2022/08/04 08:21:36;;;;;;;8.82;3.17;;;26.30;93.80;;;;;;5016612;28;20053;-40
2022/08/04 08:24:03;;;;;;;5.65;3.05;;;26.30;93.90;;;;;;5022979;28;20078;-44
2022/08/04 08:26:29;;;;;;;7.57;2.83;;;26.20;93.60;;;;;;5022122;28;20038;-38
2022/08/04 08:28:56;;;;;;;6.43;2.97;;;26.20;93.90;;;;;;5016091;28;20049;-38
2022/08/04 08:31:21;;;;;;;8.45;3.35;;;26.10;93.80;;;;;;5015522;28;20699;-38
2022/08/04 08:33:49;;;;;;;7.68;3.47;;;26.00;93.50;;;;;;5019048;28;20099;-38
2022/08/04 08:36:35;;;;;;;9.25;3.15;;;25.90;93.80;;;;;;5018899;28;20060;-38
2022/08/04 08:39:29;;;;;;;10.82;2.90;;;25.90;93.70;;;;;;5018016;28;20517;-38
2022/08/04 08:41:57;;;;;;;9.88;3.30;;;25.90;94.00;;;;;;5014917;28;20137;-35
2022/08/04 08:45:00;;;;;;;6.32;2.88;;;26.00;93.90;;;;;;5017063;28;20056;-35
2022/08/04 08:47:47;;;;;;;9.07;3.80;;;26.00;94.00;;;;;;5012199;28;20087;-38
2022/08/04 08:50:41;;;;;;;8.57;3.50;;;26.10;93.80;;;;;;5018903;28;20128;-40
2022/08/04 08:53:21;;;;;;;7.15;3.28;;;26.20;94.20;;;;;;5015127;28;20664;-38
2022/08/04 08:56:11;;;;;;;7.78;3.60;;;26.40;93.20;;;;;;5017325;28;20041;-39
2022/08/04 08:59:03;;;;;;;9.13;3.72;;;26.50;92.60;;;;;;5017326;28;20044;-38
2022/08/04 09:02:06;;;;;;;6.05;2.80;;;26.60;92.00;;;;;;5027800;28;20045;-40
2022/08/04 09:04:40;;;;;;;7.15;3.33;;;26.60;92.50;;;;;;5016590;28;20084;-38
2022/08/04 09:07:16;;;;;;;6.07;3.13;;;26.50;92.40;;;;;;5019944;28;20056;-38
2022/08/04 09:10:09;;;;;;;6.25;3.35;;;26.40;92.50;;;;;;5017936;28;20045;-39
2022/08/04 09:12:53;;;;;;;5.63;2.42;;;26.30;92.40;;;;;;5017712;28;20037;-41
2022/08/04 09:15:40;;;;;;;7.85;2.13;;;26.30;91.60;;;;;;5011311;28;20042;-38
2022/08/04 09:18:16;;;;;;;3.47;1.67;;;26.20;91.80;;;;;;5019371;28;20046;-38
2022/08/04 09:21:08;;;;;;;4.97;1.63;;;26.10;91.70;;;;;;5016084;28;20140;-35
2022/08/04 09:24:11;;;;;;;8.05;2.28;;;26.20;91.10;;;;;;5027997;28;20132;-39
2022/08/04 09:26:45;;;;;;;;;;;26.20;91.40;;;;;;5023086;28;20539;-38
2022/08/04 09:29:25;;;;;;;5.40;1.50;;;26.30;91.30;;;;;;5015192;28;19944;-38
2022/08/04 09:32:14;;;;;;;4.28;1.00;;;26.30;90.80;;;;;;5021491;28;20050;-38
2022/08/04 09:35:25;;;;;;;8.20;1.20;;;26.20;87.00;;;;;;5016574;28;20043;-39
2022/08/04 09:38:12;;;;;;;4.78;1.20;;;26.10;87.50;;;;;;5013392;28;20568;-37
2022/08/04 09:40:49;;;;;;;4.72;1.30;;;26.20;89.00;;;;;;5013562;28;20042;-42
2022/08/04 09:43:53;;;;;;;3.30;1.60;;;26.20;88.80;;;;;;5014564;28;20046;-43
2022/08/04 09:46:43;;;;;;;6.47;1.67;;;26.40;87.90;;;;;;5019749;28;20049;-41
2022/08/04 09:49:17;;;;;;;5.78;1.73;;;26.40;88.20;;;;;;5023155;28;20037;-42
2022/08/04 09:51:54;;;;;;;5.50;1.63;;;26.50;88.70;;;;;;5021649;28;20079;-37
2022/08/04 09:54:48;;;;;;;8.95;1.92;;;26.60;88.50;;;;;;5022057;28;20045;-42
2022/08/04 09:57:16;;;;;;;3.97;1.40;;;26.70;87.20;;;;;;5012008;28;20045;-39
2022/08/04 09:59:59;;;;;;;7.47;1.40;;;26.80;87.70;;;;;;5020095;28;20127;-41
2022/08/04 10:02:29;;;;;;;6.10;1.55;;;27.00;87.70;;;;;;5017930;28;20052;-42
2022/08/04 10:04:56;;;;;;;7.40;1.60;;;27.10;87.20;;;;;;5018524;28;20495;-41
2022/08/04 10:07:31;;;;;;;6.65;1.27;;;27.20;86.40;;;;;;5015672;28;20042;-45
2022/08/04 10:10:17;;;;;;;6.38;1.77;;;27.30;86.30;;;;;;5014171;28;20046;-41
2022/08/04 10:13:06;;;;;;;6.13;2.10;;;27.40;84.80;;;;;;5017412;28;20045;-40
2022/08/04 10:15:59;;;;;;;5.97;2.08;;;27.60;84.10;;;;;;5024259;28;20050;-40
2022/08/04 10:19:00;;;;;;;5.97;2.10;;;27.70;84.60;;;;;;5018416;28;20125;-40
2022/08/04 10:21:52;;;;;;;6.53;1.60;;;27.80;83.10;;;;;;5022539;28;20057;-37
2022/08/04 10:24:50;;;;;;;7.75;1.73;;;27.90;84.20;;;;;;5022882;28;20049;-43
2022/08/04 10:27:25;;;;;;;5.78;1.58;;;28.10;83.30;;;;;;5008436;28;20061;-39
2022/08/04 10:29:57;;;;;;;8.27;1.75;;;28.20;83.50;;;;;;5019234;28;20038;-42
2022/08/04 10:32:34;;;;;;;;;;;28.30;83.00;;;;;;5021647;28;20046;-42
2022/08/04 10:35:08;;;;;;;3.45;1.15;;;28.40;82.10;;;;;;5012607;28;19925;-38
2022/08/04 10:37:47;;;;;;;5.63;1.08;;;28.40;81.00;;;;;;5018302;28;20044;-43
2022/08/04 10:40:38;;;;;;;4.25;0.95;;;28.30;79.60;;;;;;5018874;28;20045;-40
2022/08/04 10:43:32;;;;;;;3.28;1.17;;;28.40;80.10;;;;;;5012848;28;20064;-39
2022/08/04 10:46:30;;;;;;;7.03;1.40;;;28.50;78.60;;;;;;5017782;28;20092;-41
2022/08/04 10:49:02;;;;;;;3.78;1.60;;;28.60;78.20;;;;;;5011879;28;20050;-41
2022/08/04 10:51:40;;;;;;;2.33;0.90;;;28.60;78.50;;;;;;5023889;28;20117;-41
2022/08/04 10:54:10;;;;;;;4.43;1.55;;;28.80;78.70;;;;;;5016051;28;20038;-40
2022/08/04 10:56:42;;;;;;;3.08;1.10;;;28.90;77.70;;;;;;5020388;28;20143;-43
2022/08/04 10:59:15;;;;;;;2.47;1.00;;;29.00;76.60;;;;;;5024597;28;20049;-38
2022/08/04 11:01:45;;;;;;;2.92;0.88;;;29.00;76.60;;;;;;5017983;28;20125;-40
2022/08/04 11:04:29;;;;;;;4.18;1.00;;;29.00;76.40;;;;;;5015723;28;20052;-39
2022/08/04 11:06:58;;;;;;;3.22;1.08;;;28.90;76.90;;;;;;5019715;28;20052;-46
2022/08/04 11:09:24;;;;;;;4.00;0.90;;;28.90;75.40;;;;;;5016696;28;22144;-40
2022/08/04 11:12:02;;;;;;;2.88;1.05;;;28.70;74.80;;;;;;5017040;28;20487;-40
2022/08/04 11:14:36;;;;;;;2.83;1.05;;;28.60;73.60;;;;;;5012153;28;20069;-40
2022/08/04 11:17:21;;;;;;;2.55;0.80;;;28.50;72.70;;;;;;5019647;28;20077;-36
2022/08/04 11:20:03;;;;;;;2.47;0.80;;;28.40;72.00;;;;;;5019818;28;20095;-39
2022/08/04 11:22:29;;;;;;;5.97;0.80;;;28.30;72.30;;;;;;5006062;28;20084;-36
2022/08/04 11:25:19;;;;;;;2.50;0.70;;;28.20;73.80;;;;;;5015096;28;20044;-39
2022/08/04 11:28:17;;;;;;;1.75;0.90;;;28.10;73.30;;;;;;5009785;28;20083;-40
2022/08/04 11:30:56;;;;;;;1.80;0.70;;;28.00;73.30;;;;;;5010772;28;20049;-40
2022/08/04 11:33:38;;;;;;;1.55;0.70;;;27.90;73.90;;;;;;5013382;28;21261;-38
2022/08/04 11:36:20;;;;;;;;;;;27.90;72.70;;;;;;5023345;28;20467;-39
2022/08/04 11:38:55;;;;;;;1.55;0.80;;;27.80;72.90;;;;;;5007782;28;19921;-43
2022/08/04 11:41:35;;;;;;;1.35;0.70;;;27.70;72.60;;;;;;5003714;28;20084;-40
2022/08/04 11:44:04;;;;;;;8.63;0.70;;;27.60;72.10;;;;;;5013289;28;20099;-36
2022/08/04 11:46:38;;;;;;;3.65;0.63;;;27.50;73.70;;;;;;5016668;28;20391;-40
2022/08/04 11:49:14;;;;;;;1.35;0.50;;;27.40;73.20;;;;;;5018107;28;20041;-38
2022/08/04 11:51:43;;;;;;;4.32;0.90;;;27.40;72.90;;;;;;5011369;28;20107;-42
2022/08/04 11:54:11;;;;;;;0.60;0.50;;;27.30;72.90;;;;;;5012752;28;20037;-39
2022/08/04 11:56:37;;;;;;;1.60;0.65;;;27.20;72.80;;;;;;5016198;28;20618;-42
2022/08/04 11:59:06;;;;;;;1.88;0.60;;;27.10;72.70;;;;;;5013355;28;20120;-38
2022/08/04 12:01:32;;;;;;;1.60;0.73;;;27.20;73.00;;;;;;5016161;28;20586;-39
2022/08/04 12:04:03;;;;;;;1.95;0.52;;;27.10;73.10;;;;;;5018555;28;20068;-40
2022/08/04 12:06:31;;;;;;;2.92;0.77;;;27.00;73.40;;;;;;5008713;28;20406;-39
2022/08/04 12:09:26;;;;;;;2.25;0.60;;;27.00;74.00;;;;;;5020772;28;20474;-37
2022/08/04 12:12:13;;;;;;;1.80;0.68;;;27.10;75.10;;;;;;5010289;28;20064;-40
2022/08/04 12:14:54;;;;;;;1.25;0.68;;;27.30;73.10;;;;;;5032247;28;20383;-44
2022/08/04 12:17:45;;;;;;;2.50;0.60;;;27.30;72.60;;;;;;5016111;28;20470;-40
2022/08/04 12:20:16;;;;;;;4.10;0.60;;;27.40;72.40;;;;;;5010410;28;20058;-37
2022/08/04 12:22:48;;;;;;;1.30;0.60;;;27.80;71.80;;;;;;5015966;28;20049;-39
2022/08/04 12:25:28;;;;;;;1.75;0.60;;;28.00;70.70;;;;;;5017038;28;20054;-40
2022/08/04 12:27:59;;;;;;;2.67;0.75;;;28.30;69.70;;;;;;5017758;28;20128;-39
2022/08/04 12:30:33;;;;;;;0.80;0.60;;;28.40;67.70;;;;;;5014515;28;20132;-38
2022/08/04 12:33:05;;;;;;;1.30;0.60;;;28.50;65.40;;;;;;5016290;28;20487;-40
2022/08/04 12:35:56;;;;;;;1.55;0.60;;;28.60;62.70;;;;;;5014418;28;20046;-39
2022/08/04 12:38:25;;;;;;;1.92;0.70;;;28.60;62.20;;;;;;5009192;28;20057;-40
2022/08/04 12:40:54;;;;;;;2.25;0.68;;;28.60;63.80;;;;;;5014252;28;20575;-42
2022/08/04 12:43:28;;;;;;;2.83;0.68;;;28.60;60.90;;;;;;5013314;28;20512;-42
2022/08/04 12:46:03;;;;;;;1.88;0.70;;;28.70;61.10;;;;;;5015743;28;20514;-39
2022/08/04 12:48:30;;;;;;;1.92;0.60;;;28.80;60.50;;;;;;5023575;28;20100;-40
2022/08/04 12:50:58;;;;;;;0.95;0.60;;;28.80;60.50;;;;;;5021659;28;20038;-42
2022/08/04 12:53:39;;;;;;;3.45;0.65;;;28.90;60.00;;;;;;5021509;28;20045;-42
2022/08/04 12:56:06;;;;;;;2.38;0.77;;;29.00;57.40;;;;;;5018020;28;20046;-40
2022/08/04 12:58:41;;;;;;;1.05;0.70;;;29.00;56.80;;;;;;5015549;28;20045;-44
2022/08/04 13:01:22;;;;;;;1.98;0.63;;;29.20;54.80;;;;;;5024866;28;20037;-42
2022/08/04 13:03:54;;;;;;;2.88;0.73;;;29.40;54.70;;;;;;5017342;28;20395;-42
2022/08/04 13:06:26;;;;;;;2.20;0.63;;;29.70;53.00;;;;;;5024387;28;20074;-40
2022/08/04 13:08:53;;;;;;;1.45;0.57;;;29.80;51.10;;;;;;5016111;28;20524;-43
2022/08/04 13:11:21;;;;;;;1.17;0.60;;;29.80;50.50;;;;;;5009195;28;20034;-40
2022/08/04 13:13:53;;;;;;;1.75;0.68;;;30.00;50.80;;;;;;5019383;28;20105;-40
2022/08/04 13:16:29;;;;;;;1.38;0.63;;;30.10;49.10;;;;;;5014710;28;20493;-42
2022/08/04 13:18:56;;;;;;;2.30;0.70;;;30.20;48.50;;;;;;5018317;28;20042;-42
2022/08/04 13:21:24;;;;;;;3.67;0.70;;;30.30;48.60;;;;;;5017320;28;20107;-42
2022/08/04 13:23:54;;;;;;;1.55;0.60;;;30.50;47.90;;;;;;5018552;28;20140;-35
2022/08/04 13:26:21;;;;;;;2.15;0.70;;;30.50;47.70;;;;;;5016851;28;20096;-40
2022/08/04 13:28:48;;;;;;;1.73;0.52;;;30.60;47.20;;;;;;5022240;28;20459;-42
2022/08/04 13:31:18;;;;;;;3.08;0.90;;;30.60;46.50;;;;;;5019628;28;20187;-42
2022/08/04 13:33:48;;;;;;;3.63;0.80;;;30.70;46.60;;;;;;5024047;28;20029;-40
2022/08/04 13:36:16;;;;;;;3.22;0.70;;;30.90;45.90;;;;;;5023183;28;20045;-42
2022/08/04 13:38:54;;;;;;;4.60;0.57;;;31.00;45.10;;;;;;5021053;28;20056;-41
2022/08/04 13:41:21;;;;;;;2.85;0.70;;;31.10;45.30;;;;;;5022514;28;20802;-40